Terminal Aerodrome Forecast
Issued by NWS

Home | Current Version | Previous Version | Text Only | Print | Product List | Glossary On
Versions: 1 2 3 4 5 6 7 8 9 10 11 12 13
000
FTUS41 KPHI 271700
TAFPNE
TAF
KPNE 271739Z 2718/2818 23006KT P6SM FEW050
     FM272100 26007KT P6SM SCT050
     FM280500 30005KT P6SM BKN050
     FM280700 34008KT P6SM FEW050
     FM281400 32010G17KT P6SM SKC=

USA.gov is the U.S. government's official web portal to all federal, state and local government web resources and services.